createdAt,value
2022-12-11T00:04:33.697Z,100302.25
2022-12-11T00:14:38.051Z,100293.22
2022-12-11T00:24:41.440Z,100284.53
2022-12-11T00:34:46.189Z,100275.91
2022-12-11T00:55:38.451Z,100257.75
2022-12-11T01:05:53.694Z,100249.22
2022-12-11T01:15:57.139Z,100240.19
2022-12-11T01:26:07.686Z,100232.22
2022-12-11T01:36:12.465Z,100224.66
2022-12-11T01:46:17.006Z,100218.47
2022-12-11T01:56:20.323Z,100212.50
2022-12-11T02:06:38.688Z,100207.53
2022-12-11T02:16:56.122Z,100131.28
2022-12-11T02:27:17.257Z,100131.13
2022-12-11T02:37:25.307Z,100130.44
2022-12-11T02:47:32.327Z,100126.75
2022-12-11T02:57:51.704Z,100124.28
2022-12-11T03:07:54.809Z,100123.50
2022-12-11T03:18:06.020Z,100116.84
2022-12-11T03:28:12.984Z,100115.44
2022-12-11T03:38:23.791Z,100111.34
2022-12-11T03:48:31.483Z,100110.59
2022-12-11T03:58:36.183Z,100109.75
2022-12-11T04:08:39.198Z,100105.75
2022-12-11T04:19:02.184Z,100106.19
2022-12-11T04:29:05.223Z,100106.44
2022-12-11T04:39:09.717Z,100102.66
2022-12-11T04:49:12.991Z,100103.91
2022-12-11T04:59:17.785Z,100104.06
2022-12-11T05:09:21.692Z,100100.38
2022-12-11T05:19:41.103Z,100101.97
2022-12-11T05:29:44.684Z,100103.34
2022-12-11T05:39:49.681Z,100104.19
2022-12-11T05:49:53.241Z,100098.56
2022-12-11T05:59:58.124Z,100100.28
2022-12-11T06:10:04.069Z,100105.69
2022-12-11T06:20:13.896Z,100105.28
2022-12-11T06:30:17.396Z,100109.31
2022-12-11T06:40:22.155Z,100115.97
2022-12-11T06:50:25.527Z,100115.31
2022-12-11T07:00:29.988Z,100119.66
2022-12-11T07:10:33.366Z,100124.47
2022-12-11T07:20:37.782Z,100131.78
2022-12-11T07:30:40.651Z,100137.09
2022-12-11T07:40:45.173Z,100140.56
2022-12-11T07:50:48.043Z,100148.47
2022-12-11T08:00:52.412Z,100154.41
2022-12-11T08:10:57.163Z,100160.78
2022-12-11T08:21:18.523Z,100167.41
2022-12-11T08:31:23.567Z,100170.63
2022-12-11T08:41:32.144Z,100171.28
2022-12-11T08:51:35.361Z,100174.75
2022-12-11T09:01:46.146Z,100178.25
2022-12-11T09:11:54.068Z,100182.88
2022-12-11T09:22:00.387Z,100184.47
2022-12-11T09:32:13.195Z,100191.34
2022-12-11T09:42:27.588Z,100198.31
2022-12-11T09:52:36.182Z,100203.84
2022-12-11T10:02:50.217Z,100206.34
2022-12-11T10:13:15.139Z,100211.75
2022-12-11T10:23:22.625Z,100219.50
2022-12-11T10:33:35.307Z,100227.00
2022-12-11T10:43:42.778Z,100237.44
2022-12-11T10:53:51.502Z,100246.13
2022-12-11T11:03:59.534Z,100256.06
2022-12-11T11:14:13.836Z,100262.91
2022-12-11T11:24:28.034Z,100269.38
2022-12-11T11:34:31.351Z,100278.31
2022-12-11T11:44:40.887Z,100288.34
2022-12-11T11:54:53.623Z,100296.97
2022-12-11T12:04:58.366Z,100306.69
2022-12-11T12:15:18.984Z,100312.97
2022-12-11T12:25:30.368Z,100320.72
2022-12-11T12:35:37.515Z,100331.25
2022-12-11T12:45:51.807Z,100342.47
2022-12-11T12:55:56.017Z,100346.78
2022-12-11T13:06:03.194Z,100358.25
2022-12-11T13:16:09.431Z,100368.41
2022-12-11T13:26:29.171Z,100377.13
2022-12-11T13:36:34.335Z,100387.84
2022-12-11T13:46:41.548Z,100392.63
2022-12-11T13:56:55.330Z,100401.41
2022-12-11T14:07:09.361Z,100404.94
2022-12-11T14:17:38.460Z,100413.28
2022-12-11T14:27:51.069Z,100421.06
2022-12-11T14:37:55.460Z,100424.00
2022-12-11T14:48:02.299Z,100431.06
2022-12-11T14:58:15.483Z,100435.66
2022-12-11T15:08:27.909Z,100438.78
2022-12-11T15:18:34.683Z,100445.25
2022-12-11T15:28:39.505Z,100451.84
2022-12-11T15:38:44.552Z,100457.44
2022-12-11T15:48:50.470Z,100464.13
2022-12-11T15:58:53.406Z,100464.50
2022-12-11T16:08:57.922Z,100470.19
2022-12-11T16:19:01.165Z,100476.09
2022-12-11T16:29:05.952Z,100482.91
2022-12-11T16:39:11.226Z,100489.66
2022-12-11T16:49:15.715Z,100494.00
2022-12-11T16:59:18.600Z,100501.44
2022-12-11T17:09:22.917Z,100509.25
2022-12-11T17:19:25.969Z,100515.34
2022-12-11T17:29:30.316Z,100519.53
2022-12-11T17:39:33.670Z,100521.22
2022-12-11T17:49:38.062Z,100524.97
2022-12-11T17:59:40.990Z,100522.47
2022-12-11T18:09:45.689Z,100523.19
2022-12-11T18:19:48.695Z,100527.53
2022-12-11T18:29:58.197Z,100531.84
2022-12-11T18:40:01.742Z,100532.97
2022-12-11T18:50:40.712Z,100528.16
2022-12-11T19:11:10.445Z,100527.75
2022-12-11T19:21:16.769Z,100527.16
2022-12-11T20:03:34.859Z,100534.19
2022-12-11T20:24:21.807Z,100536.94
2022-12-11T20:34:27.279Z,100538.38
2022-12-11T20:55:51.128Z,100540.38
2022-12-11T21:16:22.835Z,100531.78
2022-12-11T21:26:29.120Z,100531.84
2022-12-11T21:36:41.905Z,100532.56
2022-12-11T21:57:26.239Z,100521.66
2022-12-11T22:07:31.551Z,100521.88
2022-12-11T22:17:34.684Z,100512.50
2022-12-11T22:27:39.189Z,100510.69
2022-12-11T22:37:42.858Z,100511.38
2022-12-11T22:47:47.763Z,100510.69
2022-12-11T22:57:50.896Z,100505.03
2022-12-11T23:18:43.262Z,100501.31
2022-12-11T23:28:46.818Z,100500.44
2022-12-11T23:38:54.743Z,100497.94
2022-12-11T23:48:58.556Z,100500.00
2022-12-11T23:59:03.256Z,100501.72
